createdAt,value
2023-04-28T00:00:22.847Z,100.00
2023-04-28T00:01:26.387Z,100.00
2023-04-28T00:02:31.820Z,100.00
2023-04-28T00:03:35.937Z,100.00
2023-04-28T00:04:39.396Z,100.00
2023-04-28T00:05:42.886Z,100.00
2023-04-28T00:06:46.369Z,100.00
2023-04-28T00:07:50.926Z,100.00
2023-04-28T00:08:55.482Z,100.00
2023-04-28T00:10:00.786Z,100.00
2023-04-28T00:11:03.534Z,100.00
2023-04-28T00:12:09.536Z,100.00
2023-04-28T00:13:13.790Z,100.00
2023-04-28T00:14:20.196Z,100.00
2023-04-28T00:15:24.473Z,100.00
2023-04-28T00:16:27.750Z,100.00
2023-04-28T00:17:32.297Z,100.00
2023-04-28T00:18:35.684Z,100.00
2023-04-28T00:19:40.929Z,100.00
2023-04-28T00:20:43.236Z,100.00
2023-04-28T00:21:48.631Z,100.00
2023-04-28T00:22:52.969Z,100.00
2023-04-28T00:23:56.355Z,100.00
2023-04-28T00:24:59.639Z,100.00
2023-04-28T00:26:03.052Z,100.00
2023-04-28T00:27:06.335Z,100.00
2023-04-28T00:28:09.632Z,100.00
2023-04-28T00:29:12.666Z,100.00
2023-04-28T00:30:17.159Z,100.00
2023-04-28T00:31:22.367Z,100.00
2023-04-28T00:32:25.524Z,100.00
2023-04-28T00:33:30.015Z,100.00
2023-04-28T00:34:33.823Z,100.00
2023-04-28T00:35:37.510Z,100.00
2023-04-28T00:36:40.595Z,100.00
2023-04-28T00:37:43.925Z,100.00
2023-04-28T00:38:46.207Z,100.00
2023-04-28T00:39:49.865Z,100.00
2023-04-28T00:40:52.226Z,100.00
2023-04-28T00:41:58.653Z,100.00
2023-04-28T00:43:02.571Z,100.00
2023-04-28T00:44:05.975Z,100.00
2023-04-28T00:45:10.316Z,100.00
2023-04-28T00:46:15.755Z,100.00
2023-04-28T00:47:25.594Z,100.00
2023-04-28T00:48:30.117Z,100.00
2023-04-28T00:49:37.839Z,100.00
2023-04-28T00:50:43.405Z,100.00
2023-04-28T00:51:47.753Z,100.00
2023-04-28T00:52:51.656Z,100.00
2023-04-28T00:53:55.485Z,100.00
2023-04-28T00:54:58.271Z,100.00
2023-04-28T00:56:01.764Z,100.00
2023-04-28T00:57:05.061Z,100.00
2023-04-28T00:58:10.132Z,100.00
2023-04-28T00:59:14.283Z,100.00
2023-04-28T01:00:17.458Z,100.00
2023-04-28T01:01:20.785Z,100.00
2023-04-28T01:02:28.828Z,100.00
2023-04-28T01:03:36.208Z,100.00
2023-04-28T01:04:39.734Z,100.00
2023-04-28T01:05:43.547Z,100.00
2023-04-28T01:06:47.912Z,100.00
2023-04-28T01:07:51.495Z,100.00
2023-04-28T01:08:56.464Z,100.00
2023-04-28T01:10:00.076Z,100.00
2023-04-28T01:11:05.444Z,100.00
2023-04-28T01:12:10.959Z,100.00
2023-04-28T01:13:21.265Z,100.00
2023-04-28T01:14:24.749Z,100.00
2023-04-28T01:15:29.388Z,100.00
2023-04-28T01:16:33.224Z,100.00
2023-04-28T01:17:37.783Z,100.00
2023-04-28T01:18:44.776Z,100.00
2023-04-28T01:19:48.223Z,100.00
2023-04-28T01:20:51.313Z,100.00
2023-04-28T01:21:54.643Z,100.00
2023-04-28T01:22:59.041Z,100.00
2023-04-28T01:24:03.706Z,100.00
2023-04-28T01:25:07.528Z,100.00
2023-04-28T01:26:10.402Z,100.00
2023-04-28T01:27:13.912Z,100.00
2023-04-28T01:28:17.322Z,100.00
2023-04-28T01:29:20.968Z,100.00
2023-04-28T01:30:23.167Z,100.00
2023-04-28T01:31:28.386Z,100.00
2023-04-28T01:32:32.090Z,100.00
2023-04-28T01:33:38.803Z,100.00
2023-04-28T01:34:42.187Z,100.00
2023-04-28T01:35:46.300Z,100.00
2023-04-28T01:36:49.751Z,100.00
2023-04-28T01:37:52.518Z,100.00
2023-04-28T01:38:58.104Z,100.00
2023-04-28T01:40:01.634Z,100.00
2023-04-28T01:41:05.058Z,100.00
2023-04-28T01:42:08.296Z,100.00
2023-04-28T01:43:11.486Z,100.00
2023-04-28T01:44:14.966Z,100.00
2023-04-28T01:45:18.714Z,100.00
2023-04-28T01:46:24.237Z,100.00
2023-04-28T01:47:29.728Z,100.00
2023-04-28T01:48:34.380Z,100.00
2023-04-28T01:49:37.743Z,100.00
2023-04-28T01:50:44.298Z,100.00
2023-04-28T01:51:47.915Z,100.00
2023-04-28T01:52:50.881Z,100.00
2023-04-28T01:53:54.262Z,100.00
2023-04-28T01:54:57.597Z,100.00
2023-04-28T01:56:00.782Z,100.00
2023-04-28T01:57:05.623Z,100.00
2023-04-28T01:58:12.923Z,100.00
2023-04-28T01:59:22.685Z,100.00
2023-04-28T02:00:28.903Z,100.00
2023-04-28T02:01:33.254Z,100.00
2023-04-28T02:02:39.526Z,100.00
2023-04-28T02:03:44.067Z,100.00
2023-04-28T02:04:47.395Z,100.00
2023-04-28T02:05:55.595Z,100.00
2023-04-28T02:06:59.726Z,100.00
2023-04-28T02:08:03.198Z,100.00
2023-04-28T02:09:06.216Z,100.00
2023-04-28T02:10:12.005Z,100.00
2023-04-28T02:11:16.478Z,100.00
2023-04-28T02:12:21.979Z,100.00
2023-04-28T02:13:27.667Z,100.00
2023-04-28T02:14:31.770Z,100.00
2023-04-28T02:15:34.974Z,100.00
2023-04-28T02:16:39.206Z,100.00
2023-04-28T02:17:42.780Z,100.00
2023-04-28T02:18:45.163Z,100.00
2023-04-28T02:19:48.786Z,100.00
2023-04-28T02:20:52.174Z,100.00
2023-04-28T02:21:55.693Z,100.00
2023-04-28T02:22:58.467Z,100.00
2023-04-28T02:24:03.123Z,100.00
2023-04-28T02:25:08.594Z,100.00
2023-04-28T02:26:13.819Z,100.00
2023-04-28T02:27:18.296Z,100.00
2023-04-28T02:28:25.612Z,100.00
2023-04-28T02:29:28.995Z,100.00
2023-04-28T02:30:36.063Z,100.00
2023-04-28T02:31:38.426Z,100.00
2023-04-28T02:32:41.415Z,100.00
2023-04-28T02:33:44.837Z,100.00
2023-04-28T02:34:48.027Z,100.00
2023-04-28T02:35:53.042Z,100.00
2023-04-28T02:36:58.429Z,100.00
2023-04-28T02:38:05.287Z,100.00
2023-04-28T02:39:08.684Z,100.00
2023-04-28T02:40:12.609Z,100.00
2023-04-28T02:41:16.135Z,100.00
2023-04-28T02:42:19.723Z,100.00
2023-04-28T02:43:23.214Z,100.00
2023-04-28T02:44:28.417Z,100.00
2023-04-28T02:45:36.817Z,100.00
2023-04-28T02:46:39.092Z,100.00
2023-04-28T02:47:42.487Z,100.00
2023-04-28T02:48:47.737Z,100.00
2023-04-28T02:49:54.062Z,100.00
2023-04-28T02:50:57.800Z,100.00
2023-04-28T02:52:01.606Z,100.00
2023-04-28T02:53:04.910Z,100.00
2023-04-28T02:54:08.722Z,100.00
2023-04-28T02:55:12.345Z,100.00
2023-04-28T02:56:15.108Z,100.00
2023-04-28T02:57:19.365Z,100.00
2023-04-28T02:58:22.772Z,100.00
2023-04-28T02:59:26.353Z,100.00
2023-04-28T03:00:30.692Z,100.00
2023-04-28T03:01:36.077Z,100.00
2023-04-28T03:02:39.523Z,100.00
2023-04-28T03:03:43.627Z,100.00
2023-04-28T03:04:47.557Z,100.00
2023-04-28T03:05:54.096Z,100.00
2023-04-28T03:06:57.886Z,100.00
2023-04-28T03:08:02.804Z,100.00
2023-04-28T03:09:06.361Z,100.00
2023-04-28T03:10:10.977Z,100.00
2023-04-28T03:11:15.979Z,100.00
2023-04-28T03:12:19.610Z,100.00
2023-04-28T03:13:24.230Z,100.00
2023-04-28T03:14:29.531Z,100.00
2023-04-28T03:15:33.562Z,100.00
2023-04-28T03:16:37.311Z,100.00
2023-04-28T03:17:44.686Z,100.00
2023-04-28T03:18:48.242Z,100.00
2023-04-28T03:19:51.680Z,100.00
2023-04-28T03:20:54.302Z,100.00
2023-04-28T03:21:59.477Z,100.00
2023-04-28T03:23:05.283Z,100.00
2023-04-28T03:24:08.795Z,100.00
2023-04-28T03:25:12.528Z,100.00
2023-04-28T03:26:17.737Z,100.00
2023-04-28T03:27:23.489Z,100.00
2023-04-28T03:28:28.453Z,100.00
2023-04-28T03:29:31.544Z,100.00
2023-04-28T03:30:35.037Z,100.00
2023-04-28T03:31:38.308Z,100.00
2023-04-28T03:32:42.649Z,100.00
2023-04-28T03:33:48.752Z,100.00
2023-04-28T03:34:53.522Z,100.00
2023-04-28T03:35:56.697Z,100.00
2023-04-28T03:37:00.993Z,100.00
2023-04-28T03:38:05.955Z,100.00
2023-04-28T03:39:10.714Z,100.00
2023-04-28T03:40:16.771Z,100.00
2023-04-28T03:41:26.861Z,100.00
2023-04-28T03:42:34.730Z,100.00
2023-04-28T03:43:39.036Z,100.00
2023-04-28T03:44:46.200Z,100.00
2023-04-28T03:45:51.625Z,100.00
2023-04-28T03:46:54.372Z,100.00
2023-04-28T03:47:58.567Z,100.00
2023-04-28T03:49:03.039Z,100.00
2023-04-28T03:50:08.011Z,100.00
2023-04-28T03:51:13.640Z,100.00
2023-04-28T03:52:17.896Z,100.00
2023-04-28T03:53:21.685Z,100.00
2023-04-28T03:54:25.159Z,100.00
2023-04-28T03:55:28.772Z,100.00
2023-04-28T03:56:34.041Z,100.00
2023-04-28T03:57:37.556Z,100.00
2023-04-28T03:58:44.121Z,100.00
2023-04-28T03:59:49.281Z,100.00
2023-04-28T04:00:52.984Z,100.00
2023-04-28T04:01:58.471Z,100.00
2023-04-28T04:03:02.395Z,100.00
2023-04-28T04:04:05.960Z,100.00
2023-04-28T04:05:11.351Z,100.00
2023-04-28T04:06:16.469Z,100.00
2023-04-28T04:07:19.898Z,100.00
2023-04-28T04:08:24.004Z,100.00
2023-04-28T04:09:27.489Z,100.00
2023-04-28T04:10:30.618Z,100.00
2023-04-28T04:11:34.507Z,100.00
2023-04-28T04:12:38.687Z,100.00
2023-04-28T04:13:42.147Z,100.00
2023-04-28T04:14:48.693Z,100.00
2023-04-28T04:15:54.971Z,100.00
2023-04-28T04:17:00.787Z,100.00
2023-04-28T04:18:03.960Z,100.00
2023-04-28T04:19:09.322Z,100.00
2023-04-28T04:20:13.833Z,100.00
2023-04-28T04:21:16.977Z,100.00
2023-04-28T04:22:21.672Z,100.00
2023-04-28T04:23:26.327Z,100.00
2023-04-28T04:24:29.950Z,100.00
2023-04-28T04:25:33.340Z,100.00
2023-04-28T04:26:38.348Z,100.00
2023-04-28T04:27:44.632Z,100.00
2023-04-28T04:28:47.505Z,100.00
2023-04-28T04:29:52.053Z,100.00
2023-04-28T04:30:57.378Z,100.00
2023-04-28T04:32:02.465Z,100.00
2023-04-28T04:33:06.279Z,100.00
2023-04-28T04:34:10.371Z,100.00
2023-04-28T04:35:14.175Z,100.00
2023-04-28T04:36:17.478Z,100.00
2023-04-28T04:37:21.083Z,100.00
2023-04-28T04:38:29.788Z,100.00
2023-04-28T04:39:34.365Z,100.00
2023-04-28T04:40:37.673Z,100.00
2023-04-28T04:41:42.311Z,100.00
2023-04-28T04:42:50.294Z,100.00
2023-04-28T04:43:55.159Z,100.00
2023-04-28T04:44:58.669Z,100.00
2023-04-28T04:46:05.369Z,100.00
2023-04-28T04:47:09.230Z,100.00
2023-04-28T04:48:14.073Z,100.00
2023-04-28T04:49:18.949Z,100.00
2023-04-28T04:50:24.238Z,100.00
2023-04-28T04:51:29.936Z,100.00
2023-04-28T04:52:33.222Z,100.00
2023-04-28T04:53:36.648Z,100.00
2023-04-28T04:54:40.345Z,100.00
2023-04-28T04:55:44.586Z,100.00
2023-04-28T04:56:48.504Z,100.00
2023-04-28T04:57:55.047Z,100.00
2023-04-28T04:59:16.924Z,100.00
2023-04-28T05:00:22.429Z,100.00
2023-04-28T05:01:26.489Z,100.00
2023-04-28T05:02:32.011Z,100.00
2023-04-28T05:03:39.484Z,100.00
2023-04-28T05:04:43.053Z,100.00
2023-04-28T05:05:47.624Z,100.00
2023-04-28T05:06:58.800Z,100.00
2023-04-28T05:08:02.962Z,100.00
2023-04-28T05:09:06.452Z,100.00
2023-04-28T05:10:12.106Z,100.00
2023-04-28T05:11:16.363Z,100.00
2023-04-28T05:12:22.699Z,100.00
2023-04-28T05:13:25.679Z,100.00
2023-04-28T05:14:30.781Z,99.86
2023-04-28T05:15:35.824Z,100.00
2023-04-28T05:16:44.261Z,99.91
2023-04-28T05:17:49.657Z,99.47
2023-04-28T05:18:53.655Z,98.07
2023-04-28T05:19:56.110Z,98.57
2023-04-28T05:21:02.483Z,97.17
2023-04-28T05:22:05.105Z,96.84
2023-04-28T05:23:08.848Z,97.51
2023-04-28T05:24:12.952Z,98.37
2023-04-28T05:25:17.076Z,97.50
2023-04-28T05:26:20.815Z,97.44
2023-04-28T05:27:23.248Z,96.80
2023-04-28T05:28:31.777Z,96.71
2023-04-28T05:29:38.327Z,96.63
2023-04-28T05:30:44.136Z,95.73
2023-04-28T05:31:47.760Z,95.61
2023-04-28T05:32:51.890Z,94.84
2023-04-28T05:33:57.659Z,95.86
2023-04-28T05:35:02.544Z,93.81
2023-04-28T05:36:06.664Z,92.66
2023-04-28T05:37:10.573Z,92.32
2023-04-28T05:38:14.816Z,92.73
2023-04-28T05:39:19.567Z,92.57
2023-04-28T05:40:23.519Z,91.07
2023-04-28T05:41:27.926Z,90.85
2023-04-28T05:42:31.891Z,89.83
2023-04-28T05:43:35.676Z,90.49
2023-04-28T05:44:42.978Z,90.38
2023-04-28T05:45:48.027Z,91.23
2023-04-28T05:46:51.620Z,90.65
2023-04-28T05:47:57.238Z,89.87
2023-04-28T05:49:03.780Z,89.27
2023-04-28T05:50:10.261Z,87.85
2023-04-28T05:51:13.491Z,88.08
2023-04-28T05:52:17.734Z,85.92
2023-04-28T05:53:21.770Z,85.03
2023-04-28T05:54:28.606Z,83.65
2023-04-28T05:55:33.159Z,83.30
2023-04-28T05:56:36.848Z,83.67
2023-04-28T05:57:49.666Z,82.25
2023-04-28T05:58:46.286Z,79.32
2023-04-28T05:59:49.977Z,79.25
2023-04-28T06:00:55.608Z,78.29
2023-04-28T06:01:58.216Z,78.19
2023-04-28T06:03:01.734Z,78.70
2023-04-28T06:04:05.968Z,78.13
2023-04-28T06:05:11.570Z,77.85
2023-04-28T06:06:16.267Z,75.50
2023-04-28T06:07:19.739Z,75.12
2023-04-28T06:08:22.866Z,75.21
2023-04-28T06:09:26.117Z,74.06
2023-04-28T06:10:29.653Z,71.95
2023-04-28T06:11:34.127Z,71.64
2023-04-28T06:12:37.038Z,73.50
2023-04-28T06:13:40.973Z,73.31
2023-04-28T06:14:45.635Z,72.09
2023-04-28T06:15:49.661Z,70.84
2023-04-28T06:16:53.367Z,70.07
2023-04-28T06:17:56.006Z,67.93
2023-04-28T06:18:59.646Z,68.37
2023-04-28T06:20:02.840Z,66.63
2023-04-28T06:21:06.261Z,63.07
2023-04-28T06:22:09.525Z,60.85
2023-04-28T06:23:13.132Z,58.53
2023-04-28T06:24:19.334Z,59.44
2023-04-28T06:25:23.276Z,60.00
2023-04-28T06:26:28.587Z,57.79
2023-04-28T06:27:39.556Z,54.90
2023-04-28T06:28:39.025Z,51.70
2023-04-28T06:29:44.304Z,50.36
2023-04-28T06:30:48.073Z,46.92
2023-04-28T06:31:52.081Z,44.73
2023-04-28T06:32:57.271Z,42.44
2023-04-28T06:34:01.461Z,43.51
2023-04-28T06:35:05.432Z,42.22
2023-04-28T06:36:08.462Z,41.03
2023-04-28T06:37:11.765Z,40.34
2023-04-28T06:38:15.224Z,40.68
2023-04-28T06:39:18.775Z,41.18
2023-04-28T06:40:22.069Z,41.15
2023-04-28T06:41:26.727Z,42.46
2023-04-28T06:42:29.392Z,40.54
2023-04-28T06:43:34.883Z,39.76
2023-04-28T06:44:51.013Z,37.70
2023-04-28T06:45:54.276Z,35.63
2023-04-28T06:47:02.392Z,34.81
2023-04-28T06:48:06.162Z,36.53
2023-04-28T06:49:10.482Z,36.54
2023-04-28T06:50:13.772Z,37.07
2023-04-28T06:51:16.232Z,34.66
2023-04-28T06:52:22.762Z,34.90
2023-04-28T06:53:26.168Z,35.67
2023-04-28T06:54:29.479Z,35.64
2023-04-28T06:55:32.029Z,34.97
2023-04-28T06:56:37.125Z,35.84
2023-04-28T06:57:40.287Z,36.07
2023-04-28T06:58:44.630Z,35.63
2023-04-28T06:59:49.386Z,35.23
2023-04-28T07:00:53.813Z,33.53
2023-04-28T07:01:57.804Z,33.71
2023-04-28T07:03:03.357Z,35.17
2023-04-28T07:04:06.405Z,34.76
2023-04-28T07:05:09.008Z,33.32
2023-04-28T07:06:14.460Z,33.47
2023-04-28T07:07:17.580Z,33.10
2023-04-28T07:08:20.887Z,33.25
2023-04-28T07:09:24.060Z,34.26
2023-04-28T07:10:29.340Z,34.39
2023-04-28T07:11:33.066Z,33.27
2023-04-28T07:12:35.752Z,32.78
2023-04-28T07:13:41.134Z,32.81
2023-04-28T07:14:44.624Z,33.87
2023-04-28T07:15:48.129Z,32.35
2023-04-28T07:16:53.752Z,32.35
2023-04-28T07:17:57.666Z,32.79
2023-04-28T07:19:01.044Z,32.22
2023-04-28T07:20:07.033Z,31.99
2023-04-28T07:21:10.680Z,31.51
2023-04-28T07:22:13.951Z,31.65
2023-04-28T07:23:17.579Z,30.52
2023-04-28T07:24:21.495Z,30.95
2023-04-28T07:25:24.061Z,31.60
2023-04-28T07:26:28.587Z,31.50
2023-04-28T07:27:33.262Z,30.94
2023-04-28T07:28:36.663Z,33.08
2023-04-28T07:29:39.921Z,31.84
2023-04-28T07:30:44.404Z,31.88
2023-04-28T07:31:47.852Z,32.16
2023-04-28T07:32:51.836Z,31.90
2023-04-28T07:33:54.502Z,31.93
2023-04-28T07:34:58.113Z,30.77
2023-04-28T07:36:01.700Z,31.35
2023-04-28T07:37:05.854Z,32.11
2023-04-28T07:38:09.590Z,32.22
2023-04-28T07:39:13.176Z,33.37
2023-04-28T07:40:16.599Z,32.55
2023-04-28T07:41:20.510Z,33.78
2023-04-28T07:42:23.929Z,36.77
2023-04-28T07:43:28.337Z,35.10
2023-04-28T07:44:31.324Z,34.77
2023-04-28T07:45:34.521Z,34.73
2023-04-28T07:46:38.346Z,33.51
2023-04-28T07:47:49.765Z,32.87
2023-04-28T07:48:54.327Z,32.29
2023-04-28T07:49:58.248Z,32.66
2023-04-28T07:51:01.463Z,33.45
2023-04-28T07:52:04.835Z,33.10
2023-04-28T07:53:11.169Z,32.22
2023-04-28T07:54:16.283Z,30.73
2023-04-28T07:55:23.188Z,30.72
2023-04-28T07:56:27.102Z,31.75
2023-04-28T07:57:31.021Z,34.43
2023-04-28T07:58:34.317Z,33.65
2023-04-28T07:59:37.027Z,32.57
2023-04-28T08:00:41.304Z,31.38
2023-04-28T08:01:44.882Z,32.62
2023-04-28T08:02:48.471Z,31.75
2023-04-28T08:03:52.424Z,30.42
2023-04-28T08:04:55.128Z,31.65
2023-04-28T08:06:02.876Z,30.59
2023-04-28T08:07:07.732Z,30.87
2023-04-28T08:08:11.624Z,31.39
2023-04-28T08:09:15.260Z,31.86
2023-04-28T08:10:19.777Z,31.81
2023-04-28T08:11:24.502Z,32.71
2023-04-28T08:12:29.866Z,32.67
2023-04-28T08:13:33.652Z,32.04
2023-04-28T08:14:37.556Z,33.12
2023-04-28T08:15:39.957Z,32.68
2023-04-28T08:16:44.774Z,32.71
2023-04-28T08:17:49.571Z,33.97
2023-04-28T08:18:53.159Z,34.09
2023-04-28T08:19:55.809Z,34.59
2023-04-28T08:20:59.628Z,33.42
2023-04-28T08:22:04.717Z,33.81
2023-04-28T08:23:10.650Z,33.21
2023-04-28T08:24:14.006Z,34.38
2023-04-28T08:25:19.516Z,33.44
2023-04-28T08:26:22.739Z,33.77
2023-04-28T08:27:26.285Z,34.02
2023-04-28T08:28:29.108Z,32.84
2023-04-28T08:29:34.349Z,33.73
2023-04-28T08:30:38.405Z,34.20
2023-04-28T08:31:42.111Z,35.15
2023-04-28T08:32:45.546Z,35.50
2023-04-28T08:33:51.096Z,35.57
2023-04-28T08:34:55.235Z,34.65
2023-04-28T08:35:57.789Z,33.42
2023-04-28T08:37:00.553Z,34.43
2023-04-28T08:38:05.108Z,32.84
2023-04-28T08:39:12.976Z,34.17
2023-04-28T08:40:16.738Z,33.74
2023-04-28T08:41:20.844Z,33.10
2023-04-28T08:42:24.452Z,33.96
2023-04-28T08:43:28.946Z,34.21
2023-04-28T08:44:40.394Z,33.84
2023-04-28T08:45:44.473Z,34.83
2023-04-28T08:46:50.254Z,35.90
2023-04-28T08:47:54.539Z,36.68
2023-04-28T08:49:06.475Z,35.48
2023-04-28T08:50:10.843Z,36.22
2023-04-28T08:51:16.277Z,35.83
2023-04-28T08:52:21.273Z,35.46
2023-04-28T08:53:28.363Z,35.83
2023-04-28T08:54:32.925Z,35.72
2023-04-28T08:55:40.477Z,36.02
2023-04-28T08:56:46.491Z,35.68
2023-04-28T09:00:20.613Z,35.47
2023-04-28T09:01:24.391Z,33.54
2023-04-28T09:02:28.898Z,34.09
2023-04-28T09:03:34.895Z,34.04
2023-04-28T09:04:38.722Z,33.57
2023-04-28T09:05:42.223Z,33.62
2023-04-28T09:06:46.290Z,34.02
2023-04-28T09:07:50.560Z,33.22
2023-04-28T09:08:53.148Z,33.02
2023-04-28T09:10:09.784Z,32.83
2023-04-28T09:11:14.008Z,32.25
2023-04-28T09:12:18.987Z,33.45
2023-04-28T09:13:27.107Z,32.67
2023-04-28T09:14:33.917Z,31.79
2023-04-28T09:15:39.598Z,33.16
2023-04-28T09:16:43.088Z,32.91
2023-04-28T09:17:53.132Z,32.81
2023-04-28T09:18:58.625Z,32.16
2023-04-28T09:20:02.105Z,32.37
2023-04-28T09:21:08.524Z,32.47
2023-04-28T09:22:25.445Z,33.50
2023-04-28T09:23:18.274Z,32.99
2023-04-28T09:24:37.548Z,32.37
2023-04-28T09:25:39.908Z,31.17
2023-04-28T09:26:55.766Z,31.30
2023-04-28T09:27:59.680Z,31.35
2023-04-28T09:29:13.474Z,32.26
2023-04-28T09:30:17.768Z,31.73
2023-04-28T09:31:25.057Z,30.96
2023-04-28T09:32:29.125Z,30.62
2023-04-28T09:33:31.731Z,32.03
2023-04-28T09:34:45.707Z,32.01
2023-04-28T09:35:49.475Z,31.87
2023-04-28T09:36:52.894Z,32.68
2023-04-28T09:37:59.614Z,33.51
2023-04-28T09:39:01.870Z,32.73
2023-04-28T09:40:10.875Z,33.28
2023-04-28T09:41:14.538Z,32.67
2023-04-28T09:42:37.028Z,32.51
2023-04-28T09:43:40.424Z,32.04
2023-04-28T09:44:46.965Z,33.15
2023-04-28T09:45:50.511Z,33.04
2023-04-28T09:46:53.245Z,32.64
2023-04-28T09:48:01.404Z,32.44
2023-04-28T09:49:05.057Z,32.34
2023-04-28T09:50:09.766Z,32.81
2023-04-28T09:51:13.172Z,32.61
2023-04-28T09:52:18.036Z,31.46
2023-04-28T09:53:23.257Z,32.20
2023-04-28T09:54:28.081Z,34.17
2023-04-28T09:55:34.674Z,33.54
2023-04-28T09:56:42.342Z,33.87
2023-04-28T09:57:49.842Z,33.59
2023-04-28T09:58:54.249Z,33.17
2023-04-28T09:59:58.514Z,33.13
2023-04-28T10:01:02.268Z,32.45
2023-04-28T10:02:22.472Z,32.57
2023-04-28T10:03:12.355Z,33.99
2023-04-28T10:04:16.432Z,33.36
2023-04-28T10:05:20.723Z,33.24
2023-04-28T10:06:25.799Z,32.58
2023-04-28T10:07:31.013Z,32.89
2023-04-28T10:08:33.725Z,32.38
2023-04-28T10:09:36.726Z,32.99
2023-04-28T10:10:41.476Z,32.94
2023-04-28T10:11:44.587Z,33.69
2023-04-28T10:12:48.310Z,33.63
2023-04-28T10:13:52.420Z,34.42
2023-04-28T10:14:55.813Z,33.76
2023-04-28T10:15:59.549Z,32.77
2023-04-28T10:17:04.901Z,33.33
2023-04-28T10:18:16.463Z,32.24
2023-04-28T10:19:21.028Z,33.30
2023-04-28T10:20:27.561Z,34.17
2023-04-28T10:21:32.820Z,31.61
2023-04-28T10:22:42.004Z,32.96
2023-04-28T10:23:51.741Z,33.19
2023-04-28T10:25:16.128Z,33.52
2023-04-28T10:26:19.640Z,32.92
2023-04-28T10:27:24.910Z,32.52
2023-04-28T10:28:30.729Z,33.19
2023-04-28T10:29:35.170Z,32.87
2023-04-28T10:30:38.626Z,34.56
2023-04-28T10:31:43.904Z,32.78
2023-04-28T10:32:50.124Z,33.09
2023-04-28T10:33:53.575Z,32.47
2023-04-28T10:35:18.492Z,33.11
2023-04-28T10:36:38.328Z,34.78
2023-04-28T10:38:00.078Z,33.80
2023-04-28T10:39:10.253Z,34.13
2023-04-28T10:40:31.969Z,32.68
2023-04-28T10:41:34.656Z,32.70
2023-04-28T10:42:49.600Z,33.34
2023-04-28T10:43:53.435Z,32.87
2023-04-28T10:44:56.688Z,32.64
2023-04-28T10:46:01.669Z,32.65
2023-04-28T10:47:07.036Z,34.19
2023-04-28T10:48:10.582Z,34.04
2023-04-28T10:49:12.933Z,33.96
2023-04-28T10:50:24.039Z,33.35
2023-04-28T10:51:27.848Z,34.01
2023-04-28T10:52:34.836Z,33.66
2023-04-28T10:53:45.241Z,33.80
2023-04-28T10:55:19.374Z,34.52
2023-04-28T10:56:20.242Z,34.25
2023-04-28T10:57:23.580Z,34.16
2023-04-28T10:58:27.760Z,34.64
2023-04-28T10:59:31.279Z,34.15
2023-04-28T11:00:35.607Z,33.38
2023-04-28T11:01:40.693Z,32.98
2023-04-28T11:02:45.331Z,33.06
2023-04-28T11:03:51.231Z,33.31
2023-04-28T11:05:15.666Z,33.99
2023-04-28T11:06:21.457Z,31.94
2023-04-28T11:07:26.585Z,32.45
2023-04-28T11:08:34.969Z,31.68
2023-04-28T11:09:40.942Z,33.30
2023-04-28T11:11:05.870Z,33.11
2023-04-28T11:12:10.949Z,33.32
2023-04-28T11:13:32.742Z,33.81
2023-04-28T11:14:37.380Z,33.22
2023-04-28T11:15:40.763Z,33.58
2023-04-28T11:16:46.163Z,34.48
2023-04-28T11:17:52.249Z,33.98
2023-04-28T11:18:58.091Z,32.98
2023-04-28T11:20:07.829Z,32.85
2023-04-28T11:21:11.817Z,32.78
2023-04-28T11:22:17.161Z,32.60
2023-04-28T11:23:19.920Z,32.86
2023-04-28T11:24:22.590Z,32.76
2023-04-28T11:25:25.703Z,32.79
2023-04-28T11:26:30.961Z,32.39
2023-04-28T11:27:35.991Z,33.04
2023-04-28T11:28:51.213Z,32.22
2023-04-28T11:29:53.886Z,33.99
2023-04-28T11:31:02.760Z,33.73
2023-04-28T11:32:09.015Z,34.35
2023-04-28T11:33:15.496Z,32.28
2023-04-28T11:34:21.700Z,32.42
2023-04-28T11:35:24.890Z,33.05
2023-04-28T11:36:38.744Z,33.45
2023-04-28T11:37:42.259Z,34.54
2023-04-28T11:38:46.278Z,33.38
2023-04-28T11:39:53.129Z,33.06
2023-04-28T11:40:59.158Z,33.16
2023-04-28T11:42:03.819Z,32.60
2023-04-28T11:43:07.403Z,32.54
2023-04-28T11:44:12.158Z,33.75
2023-04-28T11:45:15.562Z,34.35
2023-04-28T11:46:21.716Z,33.33
2023-04-28T11:47:31.233Z,33.92
2023-04-28T11:48:34.221Z,34.21
2023-04-28T11:49:44.524Z,33.17
2023-04-28T11:50:50.993Z,32.90
2023-04-28T11:51:56.469Z,33.26
2023-04-28T11:53:00.624Z,33.11
2023-04-28T11:54:04.175Z,33.05
2023-04-28T11:55:09.152Z,33.47
2023-04-28T11:56:15.375Z,32.97
2023-04-28T11:57:22.019Z,32.65
2023-04-28T11:58:29.582Z,32.52
2023-04-28T11:59:34.553Z,33.42
2023-04-28T12:00:38.993Z,32.70
2023-04-28T12:01:49.727Z,32.83
2023-04-28T12:02:52.762Z,34.49
2023-04-28T12:03:56.494Z,33.73
2023-04-28T12:05:02.726Z,32.75
2023-04-28T12:06:06.337Z,33.26
2023-04-28T12:07:14.352Z,32.79
2023-04-28T12:08:19.601Z,33.93
2023-04-28T12:09:24.675Z,34.70
2023-04-28T12:10:30.171Z,33.07
2023-04-28T12:11:33.042Z,33.06
2023-04-28T12:12:48.969Z,32.69
2023-04-28T12:13:42.457Z,34.16
2023-04-28T12:14:55.186Z,34.41
2023-04-28T12:15:59.779Z,34.54
2023-04-28T12:17:03.320Z,34.27
2023-04-28T12:18:13.615Z,33.85
2023-04-28T12:19:17.954Z,34.38
2023-04-28T12:20:35.238Z,34.58
2023-04-28T12:21:40.530Z,34.20
2023-04-28T12:22:45.497Z,34.93
2023-04-28T12:23:48.998Z,34.17
2023-04-28T12:25:08.418Z,33.46
2023-04-28T12:26:10.949Z,32.54
2023-04-28T12:27:15.509Z,33.46
2023-04-28T12:28:17.839Z,33.92
2023-04-28T12:29:41.041Z,34.38
2023-04-28T12:30:44.908Z,34.28
2023-04-28T12:31:49.809Z,34.45
2023-04-28T12:32:56.471Z,35.21
2023-04-28T12:33:59.806Z,34.76
2023-04-28T12:35:02.740Z,34.60
2023-04-28T12:36:10.621Z,34.28
2023-04-28T12:37:13.832Z,35.70
2023-04-28T12:38:16.666Z,34.77
2023-04-28T12:39:20.788Z,34.74
2023-04-28T12:40:27.422Z,35.59
2023-04-28T12:41:30.928Z,35.34
2023-04-28T12:42:33.521Z,35.48
2023-04-28T12:43:37.127Z,35.19
2023-04-28T12:44:42.285Z,35.16
2023-04-28T12:45:46.032Z,35.20
2023-04-28T12:46:49.596Z,34.64
2023-04-28T12:47:53.164Z,35.63
2023-04-28T12:48:56.634Z,35.56
2023-04-28T12:50:00.027Z,34.54
2023-04-28T12:51:02.696Z,33.80
2023-04-28T12:52:11.712Z,35.19
2023-04-28T12:53:11.482Z,35.38
2023-04-28T12:54:16.224Z,34.78
2023-04-28T12:55:19.526Z,34.47
2023-04-28T12:56:25.387Z,33.76
2023-04-28T12:57:30.088Z,34.21
2023-04-28T12:58:34.253Z,34.32
2023-04-28T12:59:40.127Z,34.90
2023-04-28T13:00:42.797Z,34.08
2023-04-28T13:01:45.678Z,34.07
2023-04-28T13:02:51.703Z,34.24
2023-04-28T13:03:56.632Z,34.98
2023-04-28T13:05:00.246Z,35.25
2023-04-28T13:06:04.643Z,35.71
2023-04-28T13:07:07.787Z,35.38
2023-04-28T13:08:11.202Z,34.82
2023-04-28T13:09:19.183Z,35.26
2023-04-28T13:10:23.834Z,34.90
2023-04-28T13:11:29.652Z,35.52
2023-04-28T13:12:35.292Z,35.42
2023-04-28T13:13:38.830Z,35.29
2023-04-28T13:14:43.451Z,34.97
2023-04-28T13:15:46.906Z,35.59
2023-04-28T13:16:49.571Z,35.69
2023-04-28T13:17:52.891Z,34.69
2023-04-28T13:18:56.694Z,35.48
2023-04-28T13:20:00.705Z,35.00
2023-04-28T13:21:07.339Z,35.30
2023-04-28T13:22:11.074Z,34.77
2023-04-28T13:23:14.277Z,36.13
2023-04-28T13:24:16.512Z,36.94
2023-04-28T13:25:19.918Z,35.77
2023-04-28T13:26:26.771Z,35.84
2023-04-28T13:27:32.109Z,35.80
2023-04-28T13:28:38.358Z,35.67
2023-04-28T13:29:40.858Z,35.96
2023-04-28T13:30:45.160Z,36.03
2023-04-28T13:31:48.074Z,35.50
2023-04-28T13:32:51.705Z,35.38
2023-04-28T13:33:55.164Z,35.75
2023-04-28T13:34:57.404Z,35.60
2023-04-28T13:36:00.747Z,35.41
2023-04-28T13:37:04.228Z,35.24
2023-04-28T13:38:07.928Z,34.86
2023-04-28T13:39:17.387Z,34.04
2023-04-28T13:40:20.262Z,35.08
2023-04-28T13:41:22.628Z,34.39
2023-04-28T13:42:25.923Z,34.83
2023-04-28T13:43:29.322Z,35.29
2023-04-28T13:44:33.048Z,35.26
2023-04-28T13:45:36.310Z,34.82
2023-04-28T13:46:39.831Z,35.68
2023-04-28T13:47:43.207Z,35.71
2023-04-28T13:48:46.622Z,35.71
2023-04-28T13:49:52.150Z,35.40